Aviation Digital Data Service (ADDS)

Output produced by METARs form (0653 UTC 22 July 2017)
found at http://aviationweather.gov/adds/metars/
 
KALB 220520Z 2206/2306 00000KT P6SM SCT200 
     FM221900 28005KT P6SM BKN110 
     FM230000 34004KT P6SM BKN100 
     FM230300 04004KT P6SM BKN100